sensor_id;sensor_type;location;lat;lon;timestamp;temperature;humidity
31675;DHT22;18276;45.520;11.018;2023-05-02T00:01:20;14.10;99.90
31675;DHT22;18276;45.520;11.018;2023-05-02T00:03:47;14.10;99.90
31675;DHT22;18276;45.520;11.018;2023-05-02T00:06:14;14.10;99.90
31675;DHT22;18276;45.520;11.018;2023-05-02T00:08:41;14.00;99.90
31675;DHT22;18276;45.520;11.018;2023-05-02T00:11:08;14.00;99.90
31675;DHT22;18276;45.520;11.018;2023-05-02T00:13:35;14.00;99.90
31675;DHT22;18276;45.520;11.018;2023-05-02T00:16:02;14.00;99.90
31675;DHT22;18276;45.520;11.018;2023-05-02T00:18:29;13.90;99.90
31675;DHT22;18276;45.520;11.018;2023-05-02T00:20:56;13.90;99.90
31675;DHT22;18276;45.520;11.018;2023-05-02T00:23:23;13.80;99.90
31675;DHT22;18276;45.520;11.018;2023-05-02T00:25:50;13.90;99.90
31675;DHT22;18276;45.520;11.018;2023-05-02T00:28:17;13.80;99.90
31675;DHT22;18276;45.520;11.018;2023-05-02T00:30:45;13.80;99.90
31675;DHT22;18276;45.520;11.018;2023-05-02T00:33:13;13.80;99.90
31675;DHT22;18276;45.520;11.018;2023-05-02T00:35:41;13.80;99.90
31675;DHT22;18276;45.520;11.018;2023-05-02T00:38:08;13.80;99.90
31675;DHT22;18276;45.520;11.018;2023-05-02T00:40:48;13.80;99.90
31675;DHT22;18276;45.520;11.018;2023-05-02T00:43:17;13.80;99.90
31675;DHT22;18276;45.520;11.018;2023-05-02T00:45:44;13.70;99.90
31675;DHT22;18276;45.520;11.018;2023-05-02T00:48:14;13.70;99.90
31675;DHT22;18276;45.520;11.018;2023-05-02T00:50:43;13.70;99.90
31675;DHT22;18276;45.520;11.018;2023-05-02T00:53:10;13.70;99.90
31675;DHT22;18276;45.520;11.018;2023-05-02T00:55:37;13.70;99.90
31675;DHT22;18276;45.520;11.018;2023-05-02T00:58:10;13.60;99.90
31675;DHT22;18276;45.520;11.018;2023-05-02T01:01:05;13.70;99.90
31675;DHT22;18276;45.520;11.018;2023-05-02T01:13:58;13.50;99.90
31675;DHT22;18276;45.520;11.018;2023-05-02T01:16:27;13.50;99.90
31675;DHT22;18276;45.520;11.018;2023-05-02T01:18:55;13.50;99.90
31675;DHT22;18276;45.520;11.018;2023-05-02T01:21:23;13.50;99.90
31675;DHT22;18276;45.520;11.018;2023-05-02T01:24:04;13.50;99.90
31675;DHT22;18276;45.520;11.018;2023-05-02T01:29:26;13.60;99.90
31675;DHT22;18276;45.520;11.018;2023-05-02T01:31:55;13.60;99.90
31675;DHT22;18276;45.520;11.018;2023-05-02T01:34:24;13.70;99.90
31675;DHT22;18276;45.520;11.018;2023-05-02T01:36:54;13.70;99.90
31675;DHT22;18276;45.520;11.018;2023-05-02T01:39:25;13.80;99.90
31675;DHT22;18276;45.520;11.018;2023-05-02T01:41:55;13.90;99.90
31675;DHT22;18276;45.520;11.018;2023-05-02T01:44:23;13.90;99.90
31675;DHT22;18276;45.520;11.018;2023-05-02T01:46:52;13.90;99.90
31675;DHT22;18276;45.520;11.018;2023-05-02T01:49:22;13.80;99.90
31675;DHT22;18276;45.520;11.018;2023-05-02T01:51:50;13.80;99.90
31675;DHT22;18276;45.520;11.018;2023-05-02T01:54:20;13.70;99.90
31675;DHT22;18276;45.520;11.018;2023-05-02T01:56:49;13.70;99.90
31675;DHT22;18276;45.520;11.018;2023-05-02T01:59:21;13.70;99.90
31675;DHT22;18276;45.520;11.018;2023-05-02T02:01:50;13.60;99.90
31675;DHT22;18276;45.520;11.018;2023-05-02T02:04:18;13.50;99.90
31675;DHT22;18276;45.520;11.018;2023-05-02T02:06:51;13.50;99.90
31675;DHT22;18276;45.520;11.018;2023-05-02T02:09:19;13.50;99.90
31675;DHT22;18276;45.520;11.018;2023-05-02T02:11:52;13.40;99.90
31675;DHT22;18276;45.520;11.018;2023-05-02T02:14:25;13.40;99.90
31675;DHT22;18276;45.520;11.018;2023-05-02T02:16:55;13.40;99.90
31675;DHT22;18276;45.520;11.018;2023-05-02T02:19:23;13.40;99.90
31675;DHT22;18276;45.520;11.018;2023-05-02T02:21:51;13.40;99.90
31675;DHT22;18276;45.520;11.018;2023-05-02T02:24:21;13.40;99.90
31675;DHT22;18276;45.520;11.018;2023-05-02T02:26:50;13.40;99.90
31675;DHT22;18276;45.520;11.018;2023-05-02T02:29:17;13.40;99.90
31675;DHT22;18276;45.520;11.018;2023-05-02T02:31:45;13.40;99.90
31675;DHT22;18276;45.520;11.018;2023-05-02T02:34:13;13.30;99.90
31675;DHT22;18276;45.520;11.018;2023-05-02T02:36:54;13.30;99.90
31675;DHT22;18276;45.520;11.018;2023-05-02T02:40:04;13.30;99.90
31675;DHT22;18276;45.520;11.018;2023-05-02T02:42:44;13.30;99.90
31675;DHT22;18276;45.520;11.018;2023-05-02T02:53:26;13.20;99.90
31675;DHT22;18276;45.520;11.018;2023-05-02T02:56:14;13.20;99.90
31675;DHT22;18276;45.520;11.018;2023-05-02T02:59:13;13.30;99.90
31675;DHT22;18276;45.520;11.018;2023-05-02T03:01:47;13.30;99.90
31675;DHT22;18276;45.520;11.018;2023-05-02T03:04:21;13.30;99.90
31675;DHT22;18276;45.520;11.018;2023-05-02T03:06:49;13.30;99.90
31675;DHT22;18276;45.520;11.018;2023-05-02T03:09:17;13.20;99.90
31675;DHT22;18276;45.520;11.018;2023-05-02T03:11:46;13.30;99.90
31675;DHT22;18276;45.520;11.018;2023-05-02T03:14:14;13.30;99.90
31675;DHT22;18276;45.520;11.018;2023-05-02T03:16:42;13.30;99.90
31675;DHT22;18276;45.520;11.018;2023-05-02T03:19:13;13.30;99.90
31675;DHT22;18276;45.520;11.018;2023-05-02T03:21:40;13.30;99.90
31675;DHT22;18276;45.520;11.018;2023-05-02T03:24:16;13.30;99.90
31675;DHT22;18276;45.520;11.018;2023-05-02T03:26:46;13.30;99.90
31675;DHT22;18276;45.520;11.018;2023-05-02T03:29:17;13.30;99.90
31675;DHT22;18276;45.520;11.018;2023-05-02T03:31:45;13.30;99.90
31675;DHT22;18276;45.520;11.018;2023-05-02T03:34:12;13.30;99.90
31675;DHT22;18276;45.520;11.018;2023-05-02T03:36:40;13.30;99.90
31675;DHT22;18276;45.520;11.018;2023-05-02T03:39:07;13.30;99.90
31675;DHT22;18276;45.520;11.018;2023-05-02T03:41:34;13.30;99.90
31675;DHT22;18276;45.520;11.018;2023-05-02T03:44:06;13.30;99.90
31675;DHT22;18276;45.520;11.018;2023-05-02T03:46:33;13.30;99.90
31675;DHT22;18276;45.520;11.018;2023-05-02T03:49:03;13.30;99.90
31675;DHT22;18276;45.520;11.018;2023-05-02T03:51:31;13.30;99.90
31675;DHT22;18276;45.520;11.018;2023-05-02T03:54:00;13.30;99.90
31675;DHT22;18276;45.520;11.018;2023-05-02T03:56:28;13.20;99.90
31675;DHT22;18276;45.520;11.018;2023-05-02T03:59:07;13.20;99.90
31675;DHT22;18276;45.520;11.018;2023-05-02T04:01:34;13.20;99.90
31675;DHT22;18276;45.520;11.018;2023-05-02T04:04:01;13.20;99.90
31675;DHT22;18276;45.520;11.018;2023-05-02T04:06:34;13.20;99.90
31675;DHT22;18276;45.520;11.018;2023-05-02T04:09:06;13.20;99.90
31675;DHT22;18276;45.520;11.018;2023-05-02T04:11:40;13.20;99.90
31675;DHT22;18276;45.520;11.018;2023-05-02T04:14:08;13.20;99.90
31675;DHT22;18276;45.520;11.018;2023-05-02T04:16:35;13.20;99.90
31675;DHT22;18276;45.520;11.018;2023-05-02T04:19:03;13.20;99.90
31675;DHT22;18276;45.520;11.018;2023-05-02T04:21:30;13.10;99.90
31675;DHT22;18276;45.520;11.018;2023-05-02T04:23:58;13.10;99.90
31675;DHT22;18276;45.520;11.018;2023-05-02T04:26:25;13.10;99.90
31675;DHT22;18276;45.520;11.018;2023-05-02T04:28:58;13.10;99.90
31675;DHT22;18276;45.520;11.018;2023-05-02T04:31:25;13.20;99.90
31675;DHT22;18276;45.520;11.018;2023-05-02T04:33:53;13.20;99.90
31675;DHT22;18276;45.520;11.018;2023-05-02T04:36:24;13.20;99.90
31675;DHT22;18276;45.520;11.018;2023-05-02T04:38:52;13.30;99.90
31675;DHT22;18276;45.520;11.018;2023-05-02T04:41:19;13.30;99.90
31675;DHT22;18276;45.520;11.018;2023-05-02T04:43:53;13.30;99.90
31675;DHT22;18276;45.520;11.018;2023-05-02T04:46:20;13.40;99.90
31675;DHT22;18276;45.520;11.018;2023-05-02T04:48:47;13.40;99.90
31675;DHT22;18276;45.520;11.018;2023-05-02T04:51:14;13.40;99.90
31675;DHT22;18276;45.520;11.018;2023-05-02T04:53:45;13.40;99.90
31675;DHT22;18276;45.520;11.018;2023-05-02T04:56:14;13.40;99.90
31675;DHT22;18276;45.520;11.018;2023-05-02T04:58:41;13.40;99.90
31675;DHT22;18276;45.520;11.018;2023-05-02T05:01:09;13.40;99.90
31675;DHT22;18276;45.520;11.018;2023-05-02T05:03:36;13.50;99.90
31675;DHT22;18276;45.520;11.018;2023-05-02T05:06:05;13.50;99.90
31675;DHT22;18276;45.520;11.018;2023-05-02T05:08:33;13.50;99.90
31675;DHT22;18276;45.520;11.018;2023-05-02T05:11:01;13.50;99.90
31675;DHT22;18276;45.520;11.018;2023-05-02T05:13:28;13.50;99.90
31675;DHT22;18276;45.520;11.018;2023-05-02T05:15:56;13.60;99.90
31675;DHT22;18276;45.520;11.018;2023-05-02T05:18:27;13.60;99.90
31675;DHT22;18276;45.520;11.018;2023-05-02T05:20:54;13.70;99.90
31675;DHT22;18276;45.520;11.018;2023-05-02T05:23:21;13.70;99.90
31675;DHT22;18276;45.520;11.018;2023-05-02T05:25:48;13.70;99.90
31675;DHT22;18276;45.520;11.018;2023-05-02T05:28:17;13.70;99.90
31675;DHT22;18276;45.520;11.018;2023-05-02T05:30:45;13.80;99.90
31675;DHT22;18276;45.520;11.018;2023-05-02T05:33:16;13.80;99.90
31675;DHT22;18276;45.520;11.018;2023-05-02T05:35:43;13.80;99.90
31675;DHT22;18276;45.520;11.018;2023-05-02T05:38:10;13.80;99.90
31675;DHT22;18276;45.520;11.018;2023-05-02T05:40:40;13.80;99.90
31675;DHT22;18276;45.520;11.018;2023-05-02T05:43:08;13.90;99.90
31675;DHT22;18276;45.520;11.018;2023-05-02T05:45:37;13.90;99.90
31675;DHT22;18276;45.520;11.018;2023-05-02T05:48:05;14.00;99.90
31675;DHT22;18276;45.520;11.018;2023-05-02T05:50:38;14.00;99.90
31675;DHT22;18276;45.520;11.018;2023-05-02T05:53:05;14.00;99.90
31675;DHT22;18276;45.520;11.018;2023-05-02T05:55:33;14.00;99.90
31675;DHT22;18276;45.520;11.018;2023-05-02T05:58:04;14.10;99.90
31675;DHT22;18276;45.520;11.018;2023-05-02T06:00:35;14.10;99.90
31675;DHT22;18276;45.520;11.018;2023-05-02T06:03:02;14.20;99.90
31675;DHT22;18276;45.520;11.018;2023-05-02T06:05:33;14.20;99.90
31675;DHT22;18276;45.520;11.018;2023-05-02T06:08:00;14.30;99.90
31675;DHT22;18276;45.520;11.018;2023-05-02T06:10:27;14.40;99.90
31675;DHT22;18276;45.520;11.018;2023-05-02T06:12:56;14.40;99.90
31675;DHT22;18276;45.520;11.018;2023-05-02T06:15:28;14.50;99.90
31675;DHT22;18276;45.520;11.018;2023-05-02T06:17:55;14.60;99.90
31675;DHT22;18276;45.520;11.018;2023-05-02T06:20:22;14.70;99.90
31675;DHT22;18276;45.520;11.018;2023-05-02T06:22:49;14.70;99.90
31675;DHT22;18276;45.520;11.018;2023-05-02T06:25:16;14.80;99.90
31675;DHT22;18276;45.520;11.018;2023-05-02T06:27:43;14.90;99.90
31675;DHT22;18276;45.520;11.018;2023-05-02T06:30:10;15.00;99.90
31675;DHT22;18276;45.520;11.018;2023-05-02T06:32:37;15.10;99.90
31675;DHT22;18276;45.520;11.018;2023-05-02T06:35:05;15.10;99.90
31675;DHT22;18276;45.520;11.018;2023-05-02T06:37:33;15.10;99.90
31675;DHT22;18276;45.520;11.018;2023-05-02T06:40:01;15.20;99.90
31675;DHT22;18276;45.520;11.018;2023-05-02T06:42:29;15.20;99.90
31675;DHT22;18276;45.520;11.018;2023-05-02T06:44:56;15.20;99.90
31675;DHT22;18276;45.520;11.018;2023-05-02T06:47:23;15.30;99.90
31675;DHT22;18276;45.520;11.018;2023-05-02T06:49:51;15.40;99.90
31675;DHT22;18276;45.520;11.018;2023-05-02T06:52:19;15.50;99.90
31675;DHT22;18276;45.520;11.018;2023-05-02T06:54:46;15.50;99.90
31675;DHT22;18276;45.520;11.018;2023-05-02T06:57:13;15.60;99.90
31675;DHT22;18276;45.520;11.018;2023-05-02T06:59:40;15.60;99.90
31675;DHT22;18276;45.520;11.018;2023-05-02T07:02:07;15.60;99.90
31675;DHT22;18276;45.520;11.018;2023-05-02T07:04:34;15.60;99.90
31675;DHT22;18276;45.520;11.018;2023-05-02T07:07:01;15.70;99.90
31675;DHT22;18276;45.520;11.018;2023-05-02T07:09:29;15.70;99.90
31675;DHT22;18276;45.520;11.018;2023-05-02T07:11:56;15.80;99.90
31675;DHT22;18276;45.520;11.018;2023-05-02T07:14:23;15.80;99.90
31675;DHT22;18276;45.520;11.018;2023-05-02T07:16:50;15.80;99.90
31675;DHT22;18276;45.520;11.018;2023-05-02T07:19:17;15.80;99.90
31675;DHT22;18276;45.520;11.018;2023-05-02T07:21:44;15.80;99.90
31675;DHT22;18276;45.520;11.018;2023-05-02T07:24:11;15.80;99.90
31675;DHT22;18276;45.520;11.018;2023-05-02T07:26:38;15.90;99.90
31675;DHT22;18276;45.520;11.018;2023-05-02T07:29:05;15.90;99.90
31675;DHT22;18276;45.520;11.018;2023-05-02T07:31:32;16.00;99.90
31675;DHT22;18276;45.520;11.018;2023-05-02T07:33:59;16.00;99.90
31675;DHT22;18276;45.520;11.018;2023-05-02T07:36:26;16.00;99.90
31675;DHT22;18276;45.520;11.018;2023-05-02T07:38:53;16.10;99.90
31675;DHT22;18276;45.520;11.018;2023-05-02T07:41:20;16.10;99.90
31675;DHT22;18276;45.520;11.018;2023-05-02T07:43:47;16.20;99.90
31675;DHT22;18276;45.520;11.018;2023-05-02T07:46:15;16.30;99.90
31675;DHT22;18276;45.520;11.018;2023-05-02T07:48:42;16.30;99.90
31675;DHT22;18276;45.520;11.018;2023-05-02T07:51:09;16.30;99.90
31675;DHT22;18276;45.520;11.018;2023-05-02T07:53:37;16.30;99.90
31675;DHT22;18276;45.520;11.018;2023-05-02T07:56:04;16.40;99.90
31675;DHT22;18276;45.520;11.018;2023-05-02T07:58:35;16.50;99.90
31675;DHT22;18276;45.520;11.018;2023-05-02T08:01:03;16.60;99.90
31675;DHT22;18276;45.520;11.018;2023-05-02T08:03:30;16.70;99.90
31675;DHT22;18276;45.520;11.018;2023-05-02T08:05:57;16.70;99.90
31675;DHT22;18276;45.520;11.018;2023-05-02T08:08:24;16.80;99.90
31675;DHT22;18276;45.520;11.018;2023-05-02T08:10:51;17.00;99.90
31675;DHT22;18276;45.520;11.018;2023-05-02T08:13:18;17.20;99.70
31675;DHT22;18276;45.520;11.018;2023-05-02T08:15:45;17.40;99.10
31675;DHT22;18276;45.520;11.018;2023-05-02T08:18:12;17.60;98.50
31675;DHT22;18276;45.520;11.018;2023-05-02T08:20:39;17.70;97.70
31675;DHT22;18276;45.520;11.018;2023-05-02T08:23:06;17.90;97.60
31675;DHT22;18276;45.520;11.018;2023-05-02T08:25:33;18.00;97.00
31675;DHT22;18276;45.520;11.018;2023-05-02T08:28:00;18.10;96.20
31675;DHT22;18276;45.520;11.018;2023-05-02T08:30:27;18.20;95.50
31675;DHT22;18276;45.520;11.018;2023-05-02T08:32:54;18.30;95.10
31675;DHT22;18276;45.520;11.018;2023-05-02T08:35:21;18.40;94.70
31675;DHT22;18276;45.520;11.018;2023-05-02T08:37:48;18.60;94.20
31675;DHT22;18276;45.520;11.018;2023-05-02T08:40:16;18.60;92.60
31675;DHT22;18276;45.520;11.018;2023-05-02T08:42:59;18.70;92.60
31675;DHT22;18276;45.520;11.018;2023-05-02T08:45:47;18.60;92.00
31675;DHT22;18276;45.520;11.018;2023-05-02T08:48:15;18.50;92.50
31675;DHT22;18276;45.520;11.018;2023-05-02T08:50:44;18.50;92.60
31675;DHT22;18276;45.520;11.018;2023-05-02T08:53:14;18.50;92.70
31675;DHT22;18276;45.520;11.018;2023-05-02T08:55:41;18.50;92.60
31675;DHT22;18276;45.520;11.018;2023-05-02T08:58:10;18.50;92.90
31675;DHT22;18276;45.520;11.018;2023-05-02T09:00:40;18.50;92.00
31675;DHT22;18276;45.520;11.018;2023-05-02T09:05:53;18.50;91.40
31675;DHT22;18276;45.520;11.018;2023-05-02T09:08:22;18.50;91.50
31675;DHT22;18276;45.520;11.018;2023-05-02T09:10:50;18.60;90.10
31675;DHT22;18276;45.520;11.018;2023-05-02T09:13:44;18.60;86.30
31675;DHT22;18276;45.520;11.018;2023-05-02T09:16:23;18.70;84.60
31675;DHT22;18276;45.520;11.018;2023-05-02T09:18:53;18.80;84.10
31675;DHT22;18276;45.520;11.018;2023-05-02T09:21:22;18.80;81.60
31675;DHT22;18276;45.520;11.018;2023-05-02T09:23:54;18.90;80.60
31675;DHT22;18276;45.520;11.018;2023-05-02T09:26:22;19.00;79.00
31675;DHT22;18276;45.520;11.018;2023-05-02T09:28:53;19.00;78.90
31675;DHT22;18276;45.520;11.018;2023-05-02T09:31:27;19.10;78.50
31675;DHT22;18276;45.520;11.018;2023-05-02T09:34:16;19.10;78.40
31675;DHT22;18276;45.520;11.018;2023-05-02T09:36:45;19.10;78.30
31675;DHT22;18276;45.520;11.018;2023-05-02T09:39:15;19.10;78.80
31675;DHT22;18276;45.520;11.018;2023-05-02T09:41:43;19.10;79.00
31675;DHT22;18276;45.520;11.018;2023-05-02T09:44:12;19.10;78.70
31675;DHT22;18276;45.520;11.018;2023-05-02T09:46:48;19.20;79.00
31675;DHT22;18276;45.520;11.018;2023-05-02T09:49:17;19.20;79.90
31675;DHT22;18276;45.520;11.018;2023-05-02T09:51:48;19.20;80.50
31675;DHT22;18276;45.520;11.018;2023-05-02T09:54:34;19.20;79.70
31675;DHT22;18276;45.520;11.018;2023-05-02T09:57:02;19.00;80.10
31675;DHT22;18276;45.520;11.018;2023-05-02T09:59:29;19.00;80.40
31675;DHT22;18276;45.520;11.018;2023-05-02T10:01:58;19.00;81.30
31675;DHT22;18276;45.520;11.018;2023-05-02T10:04:27;19.00;81.90
31675;DHT22;18276;45.520;11.018;2023-05-02T10:06:54;19.10;81.90
31675;DHT22;18276;45.520;11.018;2023-05-02T10:09:22;19.10;81.70
31675;DHT22;18276;45.520;11.018;2023-05-02T10:11:54;19.10;80.20
31675;DHT22;18276;45.520;11.018;2023-05-02T10:14:23;19.10;79.30
31675;DHT22;18276;45.520;11.018;2023-05-02T10:17:13;19.10;79.10
31675;DHT22;18276;45.520;11.018;2023-05-02T10:20:02;19.10;79.90
31675;DHT22;18276;45.520;11.018;2023-05-02T10:22:30;19.20;80.30
31675;DHT22;18276;45.520;11.018;2023-05-02T10:24:59;19.20;80.40
31675;DHT22;18276;45.520;11.018;2023-05-02T10:27:29;19.20;79.80
31675;DHT22;18276;45.520;11.018;2023-05-02T10:29:58;19.10;79.50
31675;DHT22;18276;45.520;11.018;2023-05-02T10:32:27;19.10;79.50
31675;DHT22;18276;45.520;11.018;2023-05-02T10:34:56;19.00;79.90
31675;DHT22;18276;45.520;11.018;2023-05-02T10:37:29;18.90;79.70
31675;DHT22;18276;45.520;11.018;2023-05-02T10:39:59;18.80;80.20
31675;DHT22;18276;45.520;11.018;2023-05-02T10:42:27;18.80;80.50
31675;DHT22;18276;45.520;11.018;2023-05-02T10:44:55;18.70;80.40
31675;DHT22;18276;45.520;11.018;2023-05-02T10:47:23;18.80;80.70
31675;DHT22;18276;45.520;11.018;2023-05-02T10:49:55;18.90;79.80
31675;DHT22;18276;45.520;11.018;2023-05-02T10:52:25;19.00;79.60
31675;DHT22;18276;45.520;11.018;2023-05-02T10:55:13;19.00;77.40
31675;DHT22;18276;45.520;11.018;2023-05-02T11:00:31;19.30;76.40
31675;DHT22;18276;45.520;11.018;2023-05-02T11:03:00;19.40;76.20
31675;DHT22;18276;45.520;11.018;2023-05-02T11:05:28;19.40;75.20
31675;DHT22;18276;45.520;11.018;2023-05-02T11:10:41;19.60;74.90
31675;DHT22;18276;45.520;11.018;2023-05-02T11:13:09;19.70;75.00
31675;DHT22;18276;45.520;11.018;2023-05-02T11:18:07;19.80;73.00
31675;DHT22;18276;45.520;11.018;2023-05-02T11:20:35;19.80;73.50
31675;DHT22;18276;45.520;11.018;2023-05-02T11:25:44;20.20;74.10
31675;DHT22;18276;45.520;11.018;2023-05-02T11:31:04;20.80;70.00
31675;DHT22;18276;45.520;11.018;2023-05-02T11:33:32;20.80;69.00
31675;DHT22;18276;45.520;11.018;2023-05-02T11:36:00;20.80;68.70
31675;DHT22;18276;45.520;11.018;2023-05-02T11:38:35;20.80;68.20
31675;DHT22;18276;45.520;11.018;2023-05-02T11:41:03;20.90;67.70
31675;DHT22;18276;45.520;11.018;2023-05-02T11:43:30;20.90;68.00
31675;DHT22;18276;45.520;11.018;2023-05-02T11:45:59;20.90;65.90
31675;DHT22;18276;45.520;11.018;2023-05-02T11:48:28;20.80;65.40
31675;DHT22;18276;45.520;11.018;2023-05-02T11:51:00;20.60;66.70
31675;DHT22;18276;45.520;11.018;2023-05-02T11:53:31;20.70;67.20
31675;DHT22;18276;45.520;11.018;2023-05-02T11:56:03;20.80;67.20
31675;DHT22;18276;45.520;11.018;2023-05-02T11:58:31;20.90;66.20
31675;DHT22;18276;45.520;11.018;2023-05-02T12:01:12;20.90;65.30
31675;DHT22;18276;45.520;11.018;2023-05-02T12:03:40;20.90;64.50
31675;DHT22;18276;45.520;11.018;2023-05-02T12:06:10;20.80;64.70
31675;DHT22;18276;45.520;11.018;2023-05-02T12:08:39;20.80;64.30
31675;DHT22;18276;45.520;11.018;2023-05-02T12:11:06;20.70;63.50
31675;DHT22;18276;45.520;11.018;2023-05-02T12:13:43;20.60;63.70
31675;DHT22;18276;45.520;11.018;2023-05-02T12:16:11;20.50;63.30
31675;DHT22;18276;45.520;11.018;2023-05-02T12:18:38;20.40;62.90
31675;DHT22;18276;45.520;11.018;2023-05-02T12:21:07;20.30;62.70
31675;DHT22;18276;45.520;11.018;2023-05-02T12:23:34;20.20;63.20
31675;DHT22;18276;45.520;11.018;2023-05-02T12:26:20;20.30;64.00
31675;DHT22;18276;45.520;11.018;2023-05-02T12:28:52;20.40;63.20
31675;DHT22;18276;45.520;11.018;2023-05-02T12:31:24;20.30;62.90
31675;DHT22;18276;45.520;11.018;2023-05-02T12:33:53;20.20;62.90
31675;DHT22;18276;45.520;11.018;2023-05-02T12:36:23;20.20;62.20
31675;DHT22;18276;45.520;11.018;2023-05-02T12:38:55;20.00;61.70
31675;DHT22;18276;45.520;11.018;2023-05-02T12:41:32;20.00;61.60
31675;DHT22;18276;45.520;11.018;2023-05-02T12:44:00;20.00;62.40
31675;DHT22;18276;45.520;11.018;2023-05-02T12:46:27;20.00;61.90
31675;DHT22;18276;45.520;11.018;2023-05-02T12:49:05;20.00;61.40
31675;DHT22;18276;45.520;11.018;2023-05-02T12:51:34;20.00;61.60
31675;DHT22;18276;45.520;11.018;2023-05-02T12:54:02;20.00;61.50
31675;DHT22;18276;45.520;11.018;2023-05-02T12:56:37;20.00;61.20
31675;DHT22;18276;45.520;11.018;2023-05-02T12:59:04;20.00;61.70
31675;DHT22;18276;45.520;11.018;2023-05-02T13:01:32;20.00;62.50
31675;DHT22;18276;45.520;11.018;2023-05-02T13:04:00;19.90;62.70
31675;DHT22;18276;45.520;11.018;2023-05-02T13:06:27;19.90;62.30
31675;DHT22;18276;45.520;11.018;2023-05-02T13:08:54;20.00;62.50
31675;DHT22;18276;45.520;11.018;2023-05-02T13:11:21;20.00;63.00
31675;DHT22;18276;45.520;11.018;2023-05-02T13:13:48;20.00;63.20
31675;DHT22;18276;45.520;11.018;2023-05-02T13:16:15;20.00;63.80
31675;DHT22;18276;45.520;11.018;2023-05-02T13:18:42;20.00;63.50
31675;DHT22;18276;45.520;11.018;2023-05-02T13:21:13;20.00;63.80
31675;DHT22;18276;45.520;11.018;2023-05-02T13:23:40;20.00;63.50
31675;DHT22;18276;45.520;11.018;2023-05-02T13:26:07;20.10;63.40
31675;DHT22;18276;45.520;11.018;2023-05-02T13:28:34;20.10;63.40
31675;DHT22;18276;45.520;11.018;2023-05-02T13:31:03;20.10;63.50
31675;DHT22;18276;45.520;11.018;2023-05-02T13:33:30;20.10;63.50
31675;DHT22;18276;45.520;11.018;2023-05-02T13:35:57;20.20;62.90
31675;DHT22;18276;45.520;11.018;2023-05-02T13:38:25;20.20;63.20
31675;DHT22;18276;45.520;11.018;2023-05-02T13:40:52;20.20;63.50
31675;DHT22;18276;45.520;11.018;2023-05-02T13:43:19;20.30;63.40
31675;DHT22;18276;45.520;11.018;2023-05-02T13:45:47;20.30;63.30
31675;DHT22;18276;45.520;11.018;2023-05-02T13:48:14;20.30;63.10
31675;DHT22;18276;45.520;11.018;2023-05-02T13:50:42;20.40;63.50
31675;DHT22;18276;45.520;11.018;2023-05-02T13:53:09;20.50;63.20
31675;DHT22;18276;45.520;11.018;2023-05-02T13:55:36;20.50;63.10
31675;DHT22;18276;45.520;11.018;2023-05-02T13:58:04;20.40;62.50
31675;DHT22;18276;45.520;11.018;2023-05-02T14:00:31;20.50;62.60
31675;DHT22;18276;45.520;11.018;2023-05-02T14:02:58;20.50;62.40
31675;DHT22;18276;45.520;11.018;2023-05-02T14:05:25;20.60;62.30
31675;DHT22;18276;45.520;11.018;2023-05-02T14:07:52;20.70;62.10
31675;DHT22;18276;45.520;11.018;2023-05-02T14:10:19;20.70;62.20
31675;DHT22;18276;45.520;11.018;2023-05-02T14:12:46;20.70;61.30
31675;DHT22;18276;45.520;11.018;2023-05-02T14:15:14;20.60;60.40
31675;DHT22;18276;45.520;11.018;2023-05-02T14:17:41;20.50;60.30
31675;DHT22;18276;45.520;11.018;2023-05-02T14:20:08;20.40;60.20
31675;DHT22;18276;45.520;11.018;2023-05-02T14:22:36;20.30;60.10
31675;DHT22;18276;45.520;11.018;2023-05-02T14:25:04;20.20;60.40
31675;DHT22;18276;45.520;11.018;2023-05-02T14:27:31;20.10;60.50
31675;DHT22;18276;45.520;11.018;2023-05-02T14:29:58;19.90;60.30
31675;DHT22;18276;45.520;11.018;2023-05-02T14:32:26;19.80;61.10
31675;DHT22;18276;45.520;11.018;2023-05-02T14:34:54;19.60;62.00
31675;DHT22;18276;45.520;11.018;2023-05-02T14:37:21;19.60;62.20
31675;DHT22;18276;45.520;11.018;2023-05-02T14:39:47;19.60;62.20
31675;DHT22;18276;45.520;11.018;2023-05-02T14:42:26;19.50;61.70
31675;DHT22;18276;45.520;11.018;2023-05-02T14:44:53;19.30;62.10
31675;DHT22;18276;45.520;11.018;2023-05-02T14:47:23;19.20;62.70
31675;DHT22;18276;45.520;11.018;2023-05-02T14:49:51;19.10;63.70
31675;DHT22;18276;45.520;11.018;2023-05-02T14:52:18;19.00;63.80
31675;DHT22;18276;45.520;11.018;2023-05-02T14:54:45;19.00;64.10
31675;DHT22;18276;45.520;11.018;2023-05-02T14:57:13;18.90;64.40
31675;DHT22;18276;45.520;11.018;2023-05-02T14:59:41;18.90;64.60
31675;DHT22;18276;45.520;11.018;2023-05-02T15:02:08;18.90;65.10
31675;DHT22;18276;45.520;11.018;2023-05-02T15:04:36;18.90;65.60
31675;DHT22;18276;45.520;11.018;2023-05-02T15:07:03;18.90;65.90
31675;DHT22;18276;45.520;11.018;2023-05-02T15:09:30;19.00;65.90
31675;DHT22;18276;45.520;11.018;2023-05-02T15:11:57;19.10;65.90
31675;DHT22;18276;45.520;11.018;2023-05-02T15:14:24;19.20;65.80
31675;DHT22;18276;45.520;11.018;2023-05-02T15:16:51;19.30;65.50
31675;DHT22;18276;45.520;11.018;2023-05-02T15:19:19;19.30;65.50
31675;DHT22;18276;45.520;11.018;2023-05-02T15:21:48;19.30;65.40
31675;DHT22;18276;45.520;11.018;2023-05-02T15:24:15;19.20;65.90
31675;DHT22;18276;45.520;11.018;2023-05-02T15:26:42;19.10;66.00
31675;DHT22;18276;45.520;11.018;2023-05-02T15:29:09;19.00;66.10
31675;DHT22;18276;45.520;11.018;2023-05-02T15:31:36;19.00;66.00
31675;DHT22;18276;45.520;11.018;2023-05-02T15:34:03;19.00;66.00
31675;DHT22;18276;45.520;11.018;2023-05-02T15:36:31;18.90;66.10
31675;DHT22;18276;45.520;11.018;2023-05-02T15:38:59;18.90;66.20
31675;DHT22;18276;45.520;11.018;2023-05-02T15:41:26;18.90;66.50
31675;DHT22;18276;45.520;11.018;2023-05-02T15:43:53;18.90;66.20
31675;DHT22;18276;45.520;11.018;2023-05-02T15:46:20;18.90;66.30
31675;DHT22;18276;45.520;11.018;2023-05-02T15:48:48;18.90;66.20
31675;DHT22;18276;45.520;11.018;2023-05-02T15:51:15;18.80;66.50
31675;DHT22;18276;45.520;11.018;2023-05-02T15:53:43;18.80;66.40
31675;DHT22;18276;45.520;11.018;2023-05-02T15:56:11;18.80;66.50
31675;DHT22;18276;45.520;11.018;2023-05-02T15:58:38;18.80;66.80
31675;DHT22;18276;45.520;11.018;2023-05-02T16:01:06;18.80;67.10
31675;DHT22;18276;45.520;11.018;2023-05-02T16:03:33;18.80;67.40
31675;DHT22;18276;45.520;11.018;2023-05-02T16:06:00;18.80;67.20